createdAt,value
2022-08-14T00:02:31.315Z,100668.59
2022-08-14T00:05:01.359Z,100669.50
2022-08-14T00:07:31.145Z,100658.13
2022-08-14T00:10:50.213Z,100656.38
2022-08-14T00:12:56.729Z,100655.50
2022-08-14T00:15:29.987Z,100652.03
2022-08-14T00:18:08.790Z,100639.81
2022-08-14T00:20:45.713Z,100625.84
2022-08-14T00:23:17.997Z,100623.22
2022-08-14T00:25:59.127Z,100613.63
2022-08-14T00:28:36.995Z,100607.50
2022-08-14T00:31:09.540Z,100599.69
2022-08-14T00:33:52.186Z,100594.41
2022-08-14T00:36:35.514Z,100583.97
2022-08-14T00:39:18.327Z,100569.13
2022-08-14T00:41:50.896Z,100565.63
2022-08-14T00:44:32.740Z,100575.25
2022-08-14T00:47:03.786Z,100563.00
2022-08-14T00:49:38.223Z,100557.75
2022-08-14T00:52:14.089Z,100552.53
2022-08-14T00:54:52.907Z,100541.16
2022-08-14T00:57:32.550Z,100536.81
2022-08-14T01:00:02.605Z,100531.56
2022-08-14T01:02:32.408Z,100517.59
2022-08-14T01:05:07.775Z,100521.09
2022-08-14T01:07:38.542Z,100514.13
2022-08-14T01:10:17.874Z,100507.16
2022-08-14T01:12:50.938Z,100515.00
2022-08-14T01:15:21.507Z,100522.00
2022-08-14T01:18:23.513Z,100516.75
2022-08-14T01:21:08.219Z,100511.50
2022-08-14T01:23:46.934Z,100510.66
2022-08-14T01:26:23.517Z,100513.25
2022-08-14T01:29:06.115Z,100513.25
2022-08-14T01:31:38.382Z,100516.75
2022-08-14T01:35:18.393Z,100508.91
2022-08-14T01:36:58.615Z,100507.13
2022-08-14T01:39:32.228Z,100501.06
2022-08-14T01:42:02.702Z,100503.66
2022-08-14T01:44:34.468Z,100505.41
2022-08-14T01:47:21.067Z,100501.91
2022-08-14T01:49:59.416Z,100493.19
2022-08-14T01:52:58.993Z,100478.38
2022-08-14T01:55:32.271Z,100482.72
2022-08-14T01:58:19.456Z,100472.25
2022-08-14T02:00:54.367Z,100467.00
2022-08-14T02:03:29.667Z,100469.66
2022-08-14T02:06:04.126Z,100458.28
2022-08-14T02:08:53.439Z,100462.66
2022-08-14T02:11:29.157Z,100452.19
2022-08-14T02:14:07.329Z,100460.03
2022-08-14T02:16:39.626Z,100449.56
2022-08-14T02:19:13.657Z,100451.31
2022-08-14T02:21:47.259Z,100439.09
2022-08-14T02:24:38.806Z,100433.88
2022-08-14T02:28:25.512Z,100433.00
2022-08-14T02:30:03.349Z,100424.28
2022-08-14T02:32:36.792Z,100416.44
2022-08-14T02:35:18.693Z,100394.66
2022-08-14T02:37:49.726Z,100392.03
2022-08-14T02:40:20.035Z,100389.41
2022-08-14T02:42:54.848Z,100382.41
2022-08-14T02:45:38.736Z,100385.91
2022-08-14T02:49:04.920Z,100385.91
2022-08-14T02:51:09.317Z,100378.06
2022-08-14T02:53:42.312Z,100371.94
2022-08-14T02:56:30.939Z,100369.34
2022-08-14T02:59:10.227Z,100362.38
2022-08-14T03:01:50.533Z,100358.03
2022-08-14T03:04:20.962Z,100348.41
2022-08-14T03:06:57.877Z,100345.81
2022-08-14T03:10:24.633Z,100344.97
2022-08-14T03:12:36.259Z,100336.22
2022-08-14T03:15:14.289Z,100336.25
2022-08-14T03:17:57.008Z,100335.38
2022-08-14T03:20:28.352Z,100330.13
2022-08-14T03:23:00.215Z,100332.75
2022-08-14T03:25:34.084Z,100332.75
2022-08-14T03:28:08.338Z,100335.38
2022-08-14T03:30:47.057Z,100320.53
2022-08-14T03:33:16.809Z,100317.09
2022-08-14T03:36:00.319Z,100310.97
2022-08-14T03:39:12.572Z,100301.41
2022-08-14T03:41:33.017Z,100295.31
2022-08-14T03:45:27.958Z,100293.56
2022-08-14T03:46:57.822Z,100292.69
2022-08-14T03:49:28.634Z,100284.84
2022-08-14T03:52:07.852Z,100283.09
2022-08-14T03:54:54.966Z,100266.56
2022-08-14T03:57:24.522Z,100259.59
2022-08-14T03:59:54.218Z,100259.56
2022-08-14T04:02:32.450Z,100250.84
2022-08-14T04:05:11.837Z,100245.66
2022-08-14T04:07:49.714Z,100236.94
2022-08-14T04:10:32.386Z,100228.22
2022-08-14T04:13:03.765Z,100220.38
2022-08-14T04:15:55.983Z,100222.09
2022-08-14T04:18:26.465Z,100196.84
2022-08-14T04:20:58.608Z,100196.88
2022-08-14T04:23:29.796Z,100185.53
2022-08-14T04:26:03.171Z,100182.94
2022-08-14T04:29:07.328Z,100183.75
2022-08-14T04:31:24.914Z,100181.16
2022-08-14T04:34:17.021Z,100175.06
2022-08-14T04:37:03.325Z,100180.28
2022-08-14T04:39:57.190Z,100181.16
2022-08-14T04:42:51.382Z,100174.19
2022-08-14T04:45:23.345Z,100166.34
2022-08-14T04:48:06.201Z,100163.72
2022-08-14T04:50:45.445Z,100148.91
2022-08-14T04:53:35.510Z,100145.38
2022-08-14T04:56:10.816Z,100149.75
2022-08-14T04:59:03.694Z,100137.53
2022-08-14T05:01:33.829Z,100126.19
2022-08-14T05:04:16.418Z,100120.94
2022-08-14T05:06:53.735Z,100121.81
2022-08-14T05:09:24.321Z,100120.03
2022-08-14T05:11:54.147Z,100116.59
2022-08-14T05:14:43.244Z,100108.72
2022-08-14T05:17:14.156Z,100110.47
2022-08-14T05:21:54.260Z,100110.47
2022-08-14T05:22:38.077Z,100106.97
2022-08-14T05:25:08.832Z,100107.81
2022-08-14T05:27:39.692Z,100114.75
2022-08-14T05:30:11.026Z,100123.44
2022-08-14T05:32:46.755Z,100124.25
2022-08-14T05:35:16.369Z,100132.94
2022-08-14T05:37:48.531Z,100128.56
2022-08-14T05:40:19.019Z,100142.44
2022-08-14T05:42:52.796Z,100145.03
2022-08-14T05:45:22.604Z,100153.72
2022-08-14T05:47:55.190Z,100159.00
2022-08-14T05:50:24.675Z,100156.31
2022-08-14T05:53:01.238Z,100170.19
2022-08-14T05:55:30.766Z,100176.28
2022-08-14T05:58:03.509Z,100161.44
2022-08-14T06:00:38.777Z,100176.22
2022-08-14T06:03:10.662Z,100187.50
2022-08-14T06:05:40.674Z,100195.31
2022-08-14T06:08:31.130Z,100213.59
2022-08-14T06:11:07.964Z,100200.53
2022-08-14T06:13:45.359Z,100203.16
2022-08-14T06:16:17.652Z,100206.56
2022-08-14T06:18:52.418Z,100216.97
2022-08-14T06:21:23.215Z,100223.09
2022-08-14T06:23:55.481Z,100227.34
2022-08-14T06:26:29.946Z,100225.56
2022-08-14T06:29:00.262Z,100223.81
2022-08-14T06:31:29.783Z,100236.00
2022-08-14T06:35:09.653Z,100240.31
2022-08-14T06:36:50.263Z,100241.97
2022-08-14T06:39:36.581Z,100253.28
2022-08-14T06:42:07.721Z,100254.13
2022-08-14T06:44:58.412Z,100264.56
2022-08-14T06:47:28.092Z,100275.00
2022-08-14T06:49:58.638Z,100269.63
2022-08-14T06:52:28.202Z,100275.69
2022-08-14T06:55:01.705Z,100281.75
2022-08-14T06:57:38.949Z,100286.94
2022-08-14T07:00:22.204Z,100291.25
2022-08-14T07:03:08.855Z,100297.25
2022-08-14T07:05:58.129Z,100291.03
2022-08-14T07:08:31.099Z,100303.19
2022-08-14T07:11:04.608Z,100315.41
2022-08-14T07:13:35.090Z,100318.84
2022-08-14T07:16:05.935Z,100319.63
2022-08-14T07:18:40.678Z,100321.28
2022-08-14T07:21:11.304Z,100327.34
2022-08-14T07:23:44.087Z,100338.59
2022-08-14T07:26:16.998Z,100334.09
2022-08-14T07:28:46.881Z,100344.44
2022-08-14T07:31:17.597Z,100348.78
2022-08-14T07:33:50.631Z,100347.03
2022-08-14T07:36:27.664Z,100361.84
2022-08-14T07:39:00.928Z,100362.56
2022-08-14T07:41:35.935Z,100371.28
2022-08-14T07:44:29.230Z,100369.56
2022-08-14T07:46:55.857Z,100375.66
2022-08-14T07:49:25.449Z,100373.81
2022-08-14T07:51:55.246Z,100383.34
2022-08-14T07:54:30.286Z,100390.25
2022-08-14T07:57:11.882Z,100401.50
2022-08-14T07:59:44.514Z,100410.16
2022-08-14T08:02:19.335Z,100424.06
2022-08-14T08:04:54.191Z,100414.28
2022-08-14T08:07:30.192Z,100425.50
2022-08-14T08:10:02.349Z,100428.91
2022-08-14T08:12:34.977Z,100445.41
2022-08-14T08:15:07.410Z,100466.28
2022-08-14T08:17:53.517Z,100469.50
2022-08-14T08:20:29.840Z,100496.34
2022-08-14T08:23:06.105Z,100510.13
2022-08-14T08:25:40.006Z,100531.69
2022-08-14T08:28:22.001Z,100541.00
2022-08-14T08:30:56.840Z,100547.66
2022-08-14T08:33:31.784Z,100543.09
2022-08-14T08:36:03.770Z,100555.94
2022-08-14T08:39:16.918Z,100574.09
2022-08-14T08:41:22.831Z,100566.09
2022-08-14T08:43:55.014Z,100566.66
2022-08-14T08:46:25.658Z,100569.09
2022-08-14T08:51:30.834Z,100593.06
2022-08-14T08:54:04.523Z,100612.38
2022-08-14T08:56:39.963Z,100616.72
2022-08-14T08:59:31.604Z,100610.22
2022-08-14T09:02:06.544Z,100601.81
2022-08-14T09:04:45.221Z,100604.56
2022-08-14T09:07:28.699Z,100609.28
2022-08-14T09:10:00.574Z,100614.34
2022-08-14T09:12:32.222Z,100613.41
2022-08-14T09:15:11.631Z,100619.00
2022-08-14T09:17:42.958Z,100610.44
2022-08-14T09:20:14.178Z,100612.28
2022-08-14T09:22:57.090Z,100634.28
2022-08-14T09:26:00.464Z,100624.31
2022-08-14T09:28:16.814Z,100625.69
2022-08-14T09:30:54.087Z,100632.75
2022-08-14T09:33:33.270Z,100632.06
2022-08-14T09:36:34.428Z,100636.41
2022-08-14T09:39:21.083Z,100628.66
2022-08-14T09:42:21.404Z,100615.41
2022-08-14T09:45:09.024Z,100610.19
2022-08-14T09:47:52.658Z,100590.09
2022-08-14T09:50:26.393Z,100587.59
2022-08-14T09:52:59.587Z,100577.75
2022-08-14T09:55:41.644Z,100582.59
2022-08-14T09:58:20.109Z,100581.41
2022-08-14T10:00:54.465Z,100585.56
2022-08-14T10:03:37.395Z,100577.53
2022-08-14T10:06:10.058Z,100579.25
2022-08-14T10:08:50.835Z,100577.44
2022-08-14T10:11:24.085Z,100582.81
2022-08-14T10:13:56.862Z,100568.03
2022-08-14T10:16:33.708Z,100568.88
2022-08-14T10:19:09.718Z,100561.47
2022-08-14T10:21:58.622Z,100573.78
2022-08-14T10:24:36.815Z,100567.00
2022-08-14T10:27:07.957Z,100568.66
2022-08-14T10:29:41.017Z,100562.81
2022-08-14T10:32:17.807Z,100565.66
2022-08-14T10:35:14.474Z,100584.56
2022-08-14T10:37:46.577Z,100585.06
2022-08-14T10:40:38.629Z,100591.88
2022-08-14T10:43:22.631Z,100587.16
2022-08-14T10:45:59.623Z,100583.25
2022-08-14T10:48:37.153Z,100581.84
2022-08-14T10:51:16.781Z,100588.22
2022-08-14T10:53:57.307Z,100579.69
2022-08-14T10:56:34.969Z,100575.72
2022-08-14T10:59:05.674Z,100567.03
2022-08-14T11:01:38.532Z,100553.16
2022-08-14T11:04:30.240Z,100554.06
2022-08-14T11:07:05.847Z,100560.78
2022-08-14T11:09:35.873Z,100556.56
2022-08-14T11:12:34.094Z,100552.88
2022-08-14T11:15:03.054Z,100555.81
2022-08-14T11:17:34.067Z,100552.31
2022-08-14T11:20:06.926Z,100547.13
2022-08-14T11:23:02.937Z,100543.13
2022-08-14T11:25:43.734Z,100545.19
2022-08-14T11:28:19.059Z,100532.72
2022-08-14T11:30:54.374Z,100530.63
2022-08-14T11:33:29.191Z,100526.22
2022-08-14T11:36:00.440Z,100521.94
2022-08-14T11:38:38.796Z,100522.88
2022-08-14T11:41:08.862Z,100512.22
2022-08-14T11:43:46.902Z,100538.94
2022-08-14T11:46:30.894Z,100529.81
2022-08-14T11:49:09.389Z,100524.59
2022-08-14T11:51:52.951Z,100511.94
2022-08-14T11:54:34.262Z,100511.44
2022-08-14T11:57:05.656Z,100506.69
2022-08-14T11:59:35.330Z,100495.09
2022-08-14T12:02:35.969Z,100498.50
2022-08-14T12:05:09.597Z,100496.91
2022-08-14T12:07:43.031Z,100496.91
2022-08-14T12:10:27.331Z,100508.59
2022-08-14T12:13:19.030Z,100514.78
2022-08-14T12:16:03.027Z,100512.97
2022-08-14T12:18:37.437Z,100510.44
2022-08-14T12:21:19.241Z,100500.59
2022-08-14T12:23:51.105Z,100496.88
2022-08-14T12:26:39.545Z,100484.63
2022-08-14T12:29:12.926Z,100482.50
2022-08-14T12:31:46.823Z,100477.97
2022-08-14T12:34:20.458Z,100478.81
2022-08-14T12:36:52.467Z,100472.69
2022-08-14T12:39:23.898Z,100465.19
2022-08-14T12:42:06.520Z,100457.81
2022-08-14T12:44:38.122Z,100458.50
2022-08-14T12:47:13.191Z,100460.22
2022-08-14T12:49:54.289Z,100458.75
2022-08-14T12:52:43.123Z,100461.84
2022-08-14T12:55:22.421Z,100453.59
2022-08-14T12:58:05.980Z,100456.03
2022-08-14T13:01:16.261Z,100464.53
2022-08-14T13:03:45.395Z,100473.50
2022-08-14T13:06:15.435Z,100475.06
2022-08-14T13:08:52.808Z,100483.72
2022-08-14T13:11:23.906Z,100488.56
2022-08-14T13:14:01.363Z,100488.31
2022-08-14T13:16:38.252Z,100491.78
2022-08-14T13:19:11.131Z,100486.84
2022-08-14T13:22:05.105Z,100487.31
2022-08-14T13:24:33.616Z,100475.84
2022-08-14T13:27:05.009Z,100483.19
2022-08-14T13:29:46.725Z,100474.97
2022-08-14T13:32:17.847Z,100467.03
2022-08-14T13:34:48.043Z,100462.09
2022-08-14T13:37:17.796Z,100449.66
2022-08-14T13:39:56.288Z,100450.31
2022-08-14T13:42:30.449Z,100447.59
2022-08-14T13:45:06.504Z,100437.66
2022-08-14T13:47:36.051Z,100422.03
2022-08-14T13:50:09.023Z,100416.88
2022-08-14T13:52:59.082Z,100410.28
2022-08-14T13:55:31.413Z,100402.78
2022-08-14T13:58:05.330Z,100409.41
2022-08-14T14:00:53.639Z,100416.56
2022-08-14T14:03:30.387Z,100417.78
2022-08-14T14:06:01.944Z,100416.44
2022-08-14T14:08:46.723Z,100418.50
2022-08-14T14:11:19.529Z,100407.69
2022-08-14T14:13:49.485Z,100408.16
2022-08-14T14:16:30.071Z,100408.72
2022-08-14T14:19:09.887Z,100409.09
2022-08-14T14:21:41.317Z,100411.41
2022-08-14T14:24:15.340Z,100404.59
2022-08-14T14:26:50.232Z,100396.34
2022-08-14T14:29:24.150Z,100386.16
2022-08-14T14:32:00.785Z,100386.78
2022-08-14T14:34:33.334Z,100383.19
2022-08-14T14:37:06.179Z,100385.56
2022-08-14T14:39:37.947Z,100367.84
2022-08-14T14:42:31.893Z,100370.94
2022-08-14T14:45:07.682Z,100369.81
2022-08-14T14:47:42.582Z,100360.81
2022-08-14T14:50:13.815Z,100358.81
2022-08-14T14:52:47.242Z,100352.00
2022-08-14T14:55:17.302Z,100351.13
2022-08-14T14:57:52.142Z,100343.53
2022-08-14T15:00:24.791Z,100346.78
2022-08-14T15:03:03.222Z,100339.34
2022-08-14T15:05:33.527Z,100339.72
2022-08-14T15:08:03.042Z,100331.66
2022-08-14T15:10:39.799Z,100338.63
2022-08-14T15:13:09.850Z,100329.00
2022-08-14T15:15:39.969Z,100325.19
2022-08-14T15:18:35.856Z,100314.72
2022-08-14T15:21:03.059Z,100317.13
2022-08-14T15:23:44.837Z,100310.25
2022-08-14T15:26:24.245Z,100319.16
2022-08-14T15:29:04.898Z,100325.25
2022-08-14T15:31:36.657Z,100326.81
2022-08-14T15:34:43.367Z,100322.22
2022-08-14T15:37:11.151Z,100305.50
2022-08-14T15:39:43.181Z,100305.09
2022-08-14T15:42:16.394Z,100299.91
2022-08-14T15:44:58.156Z,100295.72
2022-08-14T15:47:32.385Z,100296.81
2022-08-14T15:50:08.785Z,100291.75
2022-08-14T15:52:39.230Z,100284.88
2022-08-14T15:55:12.825Z,100293.88
2022-08-14T15:58:01.463Z,100277.41
2022-08-14T16:00:50.216Z,100278.34
2022-08-14T16:03:27.760Z,100280.16
2022-08-14T16:06:10.814Z,100284.69
2022-08-14T16:08:45.619Z,100289.50
2022-08-14T16:11:17.010Z,100304.41
2022-08-14T16:13:47.749Z,100303.50
2022-08-14T16:16:47.138Z,100308.72
2022-08-14T16:19:12.077Z,100311.72
2022-08-14T16:22:02.584Z,100310.50
2022-08-14T16:24:59.805Z,100312.97
2022-08-14T16:27:37.196Z,100298.44
2022-08-14T16:30:20.873Z,100302.38
2022-08-14T16:32:56.431Z,100303.69
2022-08-14T16:35:42.637Z,100296.56
2022-08-14T16:38:45.737Z,100300.09
2022-08-14T16:41:29.449Z,100296.75
2022-08-14T16:44:01.692Z,100289.06
2022-08-14T16:46:34.833Z,100292.06
2022-08-14T16:49:07.136Z,100307.03
2022-08-14T16:51:38.588Z,100300.91
2022-08-14T16:54:21.073Z,100294.94
2022-08-14T16:57:16.419Z,100294.03
2022-08-14T16:59:51.936Z,100288.16
2022-08-14T17:02:36.391Z,100274.41
2022-08-14T17:05:20.827Z,100272.22
2022-08-14T17:08:31.753Z,100275.28
2022-08-14T17:11:12.502Z,100264.16
2022-08-14T17:13:57.708Z,100257.44
2022-08-14T17:16:31.058Z,100250.00
2022-08-14T17:19:03.944Z,100253.72
2022-08-14T17:21:40.946Z,100237.31
2022-08-14T17:24:57.934Z,100225.09
2022-08-14T17:27:05.380Z,100222.09
2022-08-14T17:29:44.525Z,100218.09
2022-08-14T17:32:44.062Z,100201.66
2022-08-14T17:35:17.913Z,100200.22
2022-08-14T17:37:55.477Z,100195.06
2022-08-14T17:40:26.636Z,100191.94
2022-08-14T17:43:02.828Z,100186.09
2022-08-14T17:45:53.018Z,100184.63
2022-08-14T17:49:10.679Z,100166.50
2022-08-14T17:51:23.865Z,100162.50
2022-08-14T17:54:02.412Z,100150.47
2022-08-14T17:56:34.572Z,100160.38
2022-08-14T17:59:12.510Z,100157.91
2022-08-14T18:01:49.555Z,100149.38
2022-08-14T18:04:28.126Z,100136.22
2022-08-14T18:07:16.081Z,100143.59
2022-08-14T18:09:56.899Z,100144.97
2022-08-14T18:12:32.876Z,100139.78
2022-08-14T18:15:16.138Z,100127.72
2022-08-14T18:17:52.560Z,100121.16
2022-08-14T18:21:41.044Z,100128.34
2022-08-14T18:23:14.290Z,100101.34
2022-08-14T18:25:50.393Z,100097.28
2022-08-14T18:28:48.694Z,100094.84
2022-08-14T18:31:42.238Z,100081.09
2022-08-14T18:34:31.550Z,100067.94
2022-08-14T18:37:17.293Z,100068.97
2022-08-14T18:40:02.036Z,100063.88
2022-08-14T18:42:44.576Z,100064.91
2022-08-14T18:45:19.046Z,100056.25
2022-08-14T18:48:50.169Z,100056.41
2022-08-14T18:51:44.950Z,100046.94
2022-08-14T18:54:33.179Z,100051.44
2022-08-14T18:57:05.650Z,100044.47
2022-08-14T18:59:43.948Z,100033.19
2022-08-14T19:02:43.818Z,100028.16
2022-08-14T19:05:16.390Z,100025.69
2022-08-14T19:07:48.413Z,100013.50
2022-08-14T19:10:37.634Z,100005.72
2022-08-14T19:13:11.519Z,99998.88
2022-08-14T19:15:43.428Z,99992.81
2022-08-14T19:18:26.314Z,99984.97
2022-08-14T19:21:01.758Z,99993.00
2022-08-14T19:23:43.036Z,99972.91
2022-08-14T19:26:35.796Z,99972.19
2022-08-14T19:29:36.203Z,99971.31
2022-08-14T19:32:39.440Z,99965.38
2022-08-14T19:35:16.563Z,99969.75
2022-08-14T19:37:54.081Z,99968.09
2022-08-14T19:40:34.442Z,99961.22
2022-08-14T19:43:06.898Z,99962.13
2022-08-14T19:45:39.600Z,99959.56
2022-08-14T19:48:15.741Z,99961.34
2022-08-14T19:50:47.112Z,99968.50
2022-08-14T19:53:19.811Z,99965.09
2022-08-14T19:56:02.018Z,99967.78
2022-08-14T19:58:54.588Z,99973.16
2022-08-14T20:01:36.677Z,99957.41
2022-08-14T20:04:45.193Z,99967.09
2022-08-14T20:07:04.274Z,99970.72
2022-08-14T20:11:06.627Z,99974.22
2022-08-14T20:12:36.622Z,99974.28
2022-08-14T20:15:47.489Z,99984.84
2022-08-14T20:18:45.889Z,99982.31
2022-08-14T20:21:07.489Z,99984.13
2022-08-14T20:23:38.893Z,99976.31
2022-08-14T20:26:31.246Z,99973.69
2022-08-14T20:29:04.948Z,99969.41
2022-08-14T20:31:38.317Z,99964.22
2022-08-14T20:34:19.162Z,99961.56
2022-08-14T20:37:04.191Z,99966.09
2022-08-14T20:39:34.010Z,99962.59
2022-08-14T20:42:24.786Z,99963.59
2022-08-14T20:45:06.826Z,99967.13
2022-08-14T20:47:50.570Z,99969.88
2022-08-14T20:50:28.831Z,99969.09
2022-08-14T20:53:00.207Z,99963.06
2022-08-14T20:55:32.490Z,99965.69
2022-08-14T20:58:10.072Z,99964.94
2022-08-14T21:01:00.731Z,99965.97
2022-08-14T21:03:57.326Z,99964.28
2022-08-14T21:06:30.253Z,99959.94
2022-08-14T21:09:19.794Z,99953.00
2022-08-14T21:12:34.840Z,99954.91
2022-08-14T21:14:59.403Z,99959.28
2022-08-14T21:17:30.446Z,99947.13
2022-08-14T21:20:25.546Z,99947.06
2022-08-14T21:22:53.044Z,99948.06
2022-08-14T21:25:26.037Z,99951.69
2022-08-14T21:28:02.564Z,99949.06
2022-08-14T21:30:51.317Z,99950.00
2022-08-14T21:33:22.764Z,99946.53
2022-08-14T21:35:56.682Z,99952.72
2022-08-14T21:38:31.227Z,99956.28
2022-08-14T21:41:42.371Z,99952.81
2022-08-14T21:44:17.784Z,99956.38
2022-08-14T21:46:53.442Z,99971.28
2022-08-14T21:49:25.610Z,99966.09
2022-08-14T21:52:51.247Z,99964.41
2022-08-14T21:55:09.329Z,99967.16
2022-08-14T21:57:57.019Z,99966.28
2022-08-14T22:00:42.154Z,99959.31
2022-08-14T22:03:14.284Z,99962.94
2022-08-14T22:05:44.577Z,99962.09
2022-08-14T22:08:16.654Z,99963.03
2022-08-14T22:10:51.543Z,99963.91
2022-08-14T22:13:26.536Z,99949.91
2022-08-14T22:15:59.681Z,99950.88
2022-08-14T22:18:30.316Z,99943.13
2022-08-14T22:21:00.711Z,99950.13
2022-08-14T22:23:38.178Z,99942.34
2022-08-14T22:26:09.137Z,99925.78
2022-08-14T22:28:39.070Z,99923.22
2022-08-14T22:31:23.178Z,99922.38
2022-08-14T22:33:57.783Z,99911.03
2022-08-14T22:36:42.032Z,99916.31
2022-08-14T22:39:14.793Z,99904.13
2022-08-14T22:41:56.095Z,99903.31
2022-08-14T22:44:28.428Z,99894.63
2022-08-14T22:46:58.918Z,99892.03
2022-08-14T22:50:31.702Z,99891.19
2022-08-14T22:52:31.729Z,99890.44
2022-08-14T22:55:06.039Z,99858.09
2022-08-14T22:57:37.363Z,99837.91
2022-08-14T23:00:15.037Z,99826.53
2022-08-14T23:02:47.048Z,99806.53
2022-08-14T23:05:39.937Z,99815.28
2022-08-14T23:08:59.843Z,99817.94
2022-08-14T23:11:10.190Z,99828.47
2022-08-14T23:13:40.597Z,99819.78
2022-08-14T23:16:20.057Z,99839.94
2022-08-14T23:18:54.001Z,99826.03
2022-08-14T23:21:25.341Z,99820.88
2022-08-14T23:23:59.734Z,99798.19
2022-08-14T23:26:47.080Z,99792.97
2022-08-14T23:29:20.342Z,99798.38
2022-08-14T23:31:51.496Z,99792.38
2022-08-14T23:34:23.970Z,99778.41
2022-08-14T23:36:56.114Z,99790.78
2022-08-14T23:39:29.976Z,99769.91
2022-08-14T23:42:04.572Z,99758.50
2022-08-14T23:44:36.978Z,99759.53
2022-08-14T23:47:12.188Z,99735.97
2022-08-14T23:50:00.906Z,99731.66
2022-08-14T23:52:56.256Z,99730.97
2022-08-14T23:55:29.416Z,99713.63
2022-08-14T23:58:02.142Z,99696.22
